DYR weather

Dyersburg Regional Airport
Dyersburg, Tennessee, United States

Public forecast

Using degrees Fahrenheit for public forecast. Weather courtesy of forecast.io.

Current aviation weather report (METAR) for Dyersburg Regional Airport

Retrieved 2019/10/20 22:56 UTC (42 minutes ago):

KDYR 202256Z AUTO 10004KT 10SM CLR 23/14 A2983 RMK AO2 SLP106 T02280144

Closest aviation forecast (TAF) to Dyersburg Regional Airport

Closest forecast is McKellar-Sipes Regional Airport, 33.8 nm (62.6 km) SE. Retrieved 2019/10/20 18:39 UTC (5 hours ago):

TAF KMKL 201735Z 2018/2118 19006KT P6SM SCT010 BKN050 FM210900 18011G18KT P6SM VCSH BKN050 FM211400 19014G25KT 4SM TSRA BKN025CB OVC040 WS020/22045KT TEMPO 2116/2118 1SM TSRA